Time;durP1;ratioP1;P1;durP2;ratioP2;P2;SDS_P1;SDS_P2;PMS_P1;PMS_P2;Temp;Humidity;BMP_temperature;BMP_pressure;BME280_temperature;BME280_humidity;BME280_pressure;Samples;Min_cycle;Max_cycle;Signal;HPM_P1;HPM_P2
2022/09/05 00:00:29;;;;;;;16.80;6.80;;;;;;;12.14;53.91;101634.90;88253;1280;78935;-56
2022/09/05 00:03:07;;;;;;;12.70;5.70;;;;;;;12.10;53.98;101634.05;88266;1279;95891;-61
2022/09/05 00:05:50;;;;;;;13.00;4.90;;;;;;;12.06;54.06;101636.63;88249;1280;85829;-61
2022/09/05 00:08:27;;;;;;;6.70;3.20;;;;;;;12.03;54.12;101635.06;88247;1280;92860;-57
2022/09/05 00:11:07;;;;;;;7.30;2.40;;;;;;;11.97;54.35;101640.21;88214;1279;78234;-59
2022/09/05 00:13:39;;;;;;;4.40;1.90;;;;;;;11.92;54.36;101639.34;88239;1280;81287;-60
2022/09/05 00:16:31;;;;;;;4.40;1.60;;;;;;;11.85;54.50;101637.52;88233;1280;98728;-60
2022/09/05 00:19:09;;;;;;;4.70;2.00;;;;;;;11.82;54.56;101636.95;88211;1280;85122;-61
2022/09/05 00:21:58;;;;;;;3.20;1.80;;;;;;;11.79;54.66;101635.69;88211;1280;91444;-60
2022/09/05 00:24:44;;;;;;;4.30;2.50;;;;;;;11.77;54.84;101640.08;88206;1279;77859;-59
2022/09/05 00:27:25;;;;;;;7.70;2.90;;;;;;;11.76;54.90;101640.71;88260;1279;85093;-58
2022/09/05 00:30:06;;;;;;;6.70;3.40;;;;;;;11.75;55.04;101640.48;88230;1280;96527;-57
2022/09/05 00:33:13;;;;;;;20.50;9.30;;;;;;;11.74;55.07;101641.43;88292;1279;86755;-60
2022/09/05 00:35:59;;;;;;;31.20;11.30;;;;;;;11.74;55.17;101637.48;88262;1280;92774;-60
2022/09/05 00:38:29;;;;;;;34.80;13.50;;;;;;;11.73;55.25;101639.20;88256;1280;77235;-58
2022/09/05 00:41:01;;;;;;;48.40;18.00;;;;;;;11.70;55.47;101638.07;88317;1279;80666;-59
2022/09/05 00:43:32;;;;;;;35.90;15.10;;;;;;;11.69;55.38;101638.77;88290;1280;98509;-57
2022/09/05 00:46:03;;;;;;;29.30;11.70;;;;;;;11.63;55.53;101640.67;88278;1280;89080;-57
2022/09/05 00:48:38;;;;;;;24.70;9.50;;;;;;;11.59;55.63;101637.13;88229;1280;94021;-61
2022/09/05 00:51:36;;;;;;;31.30;13.30;;;;;;;11.56;55.70;101628.14;88251;1280;80766;-60
2022/09/05 00:54:31;;;;;;;34.80;14.10;;;;;;;11.53;55.75;101625.52;88230;1279;80423;-60
2022/09/05 00:57:27;;;;;;;31.30;13.80;;;;;;;11.49;55.82;101624.22;88241;1279;96353;-60
2022/09/05 01:00:13;;;;;;;29.00;13.40;;;;;;;11.46;55.96;101623.27;88239;1279;87877;-60
2022/09/05 01:03:24;;;;;;;28.40;12.10;;;;;;;11.39;56.09;101624.60;88248;1280;95780;-60
2022/09/05 01:06:14;;;;;;;27.90;10.60;;;;;;;11.34;56.21;101627.84;88227;1279;78841;-60
2022/09/05 01:09:01;;;;;;;22.30;9.20;;;;;;;11.24;56.29;101626.86;88220;1280;83045;-61
2022/09/05 01:11:45;;;;;;;20.30;9.20;;;;;;;11.16;56.50;101624.97;88224;1278;99221;-61
2022/09/05 01:14:31;;;;;;;15.60;6.90;;;;;;;11.16;56.52;101629.15;88271;1279;87614;-60
2022/09/05 01:17:23;;;;;;;14.30;7.00;;;;;;;11.14;56.61;101628.60;88243;1279;92915;-60
2022/09/05 01:20:12;;;;;;;12.20;5.60;;;;;;;11.12;56.82;101626.91;88264;1280;78133;-61
2022/09/05 01:23:10;;;;;;;8.60;3.90;;;;;;;11.09;57.07;101633.70;88308;1280;82902;-61
2022/09/05 01:25:57;;;;;;;8.30;3.70;;;;;;;11.06;57.07;101629.55;88241;1279;98072;-61
2022/09/05 01:28:29;;;;;;;7.40;3.50;;;;;;;11.01;57.04;101627.61;88306;1279;86483;-61
2022/09/05 01:31:05;;;;;;;8.10;3.20;;;;;;;10.96;57.21;101636.71;88276;1280;95626;-61
2022/09/05 01:33:48;;;;;;;6.10;2.80;;;;;;;10.92;57.38;101633.37;88256;1280;79884;-59
2022/09/05 01:36:45;;;;;;;5.30;2.10;;;;;;;10.87;57.33;101633.75;88247;1279;81227;-59
2022/09/05 01:39:21;;;;;;;3.40;1.90;;;;;;;10.82;57.43;101634.10;88232;1279;96454;-61
2022/09/05 01:41:54;;;;;;;2.70;1.50;;;;;;;10.76;57.83;101633.42;88280;1280;87738;-56
2022/09/05 01:44:39;;;;;;;2.90;1.60;;;;;;;10.71;57.67;101635.86;88233;1279;92872;-57
2022/09/05 01:47:22;;;;;;;;;;;;;;;10.60;57.91;101637.15;88225;1280;80980;-58
2022/09/05 01:50:01;;;;;;;2.60;1.50;;;;;;;10.50;57.94;101640.19;88237;1279;84860;-57
2022/09/05 01:52:46;;;;;;;2.90;2.00;;;;;;;10.40;58.01;101638.75;88226;1279;96448;-61
2022/09/05 01:55:28;;;;;;;;;;;;;;;10.33;58.22;101639.95;88253;1278;89712;-61
2022/09/05 01:58:09;;;;;;;5.20;1.40;;;;;;;10.28;58.31;101640.88;88264;1280;92431;-58
2022/09/05 02:00:50;;;;;;;1.80;1.10;;;;;;;10.19;58.74;101639.69;88121;1278;78069;-57
2022/09/05 02:03:29;;;;;;;3.80;1.70;;;;;;;10.03;58.86;101639.08;88212;1282;80374;-59
2022/09/05 02:06:16;;;;;;;4.90;1.60;;;;;;;9.91;59.30;101645.54;88178;1282;95849;-59
2022/09/05 02:09:11;;;;;;;2.70;1.40;;;;;;;9.82;59.43;101642.41;88228;1283;90902;-59
2022/09/05 02:11:57;;;;;;;3.80;1.70;;;;;;;9.72;59.54;101643.16;88260;1283;93440;-58
2022/09/05 02:14:38;;;;;;;3.00;1.70;;;;;;;9.63;59.94;101643.71;88194;1281;79907;-58
2022/09/05 02:17:21;;;;;;;5.90;1.50;;;;;;;9.52;60.24;101643.23;88201;1282;80368;-59
2022/09/05 02:19:55;;;;;;;3.50;1.30;;;;;;;9.50;60.43;101646.22;88185;1283;98014;-59
2022/09/05 02:22:28;;;;;;;3.60;1.30;;;;;;;9.49;60.61;101639.86;88169;1283;88712;-58
2022/09/05 02:25:09;;;;;;;4.40;1.50;;;;;;;9.44;60.95;101643.23;88160;1281;92733;-58
2022/09/05 02:27:42;;;;;;;2.30;1.40;;;;;;;9.39;61.16;101644.60;88164;1281;76925;-57
2022/09/05 02:30:17;;;;;;;2.50;1.30;;;;;;;9.36;61.12;101647.66;88138;1281;80086;-59
2022/09/05 02:32:55;;;;;;;2.40;1.30;;;;;;;9.23;61.38;101649.64;88188;1281;95229;-58
2022/09/05 02:35:31;;;;;;;1.40;1.00;;;;;;;9.12;61.49;101656.14;88144;1283;86269;-57
2022/09/05 02:38:06;;;;;;;2.70;1.20;;;;;;;8.99;61.72;101658.22;88158;1283;92260;-58
2022/09/05 02:40:43;;;;;;;2.10;1.20;;;;;;;8.89;62.02;101653.91;88134;1283;78394;-58
2022/09/05 02:43:22;;;;;;;2.10;1.20;;;;;;;8.75;62.24;101656.15;88213;1282;80624;-59
2022/09/05 02:46:03;;;;;;;3.60;1.50;;;;;;;8.62;62.65;101658.66;88221;1281;97421;-59
2022/09/05 02:48:44;;;;;;;2.50;1.00;;;;;;;8.52;62.87;101662.13;88191;1283;89284;-61
2022/09/05 02:51:24;;;;;;;3.70;1.20;;;;;;;8.41;63.18;101655.85;88185;1283;93810;-61
2022/09/05 02:53:59;;;;;;;3.10;1.30;;;;;;;8.29;63.62;101657.35;88186;1283;79120;-58
2022/09/05 02:56:56;;;;;;;1.50;1.10;;;;;;;8.21;63.87;101656.44;88199;1283;83003;-58
2022/09/05 02:59:45;;;;;;;2.40;1.20;;;;;;;8.12;64.28;101660.36;88226;1280;99424;-61
2022/09/05 03:02:29;;;;;;;1.50;1.00;;;;;;;8.03;64.51;101661.00;88228;1283;88681;-58
2022/09/05 03:05:06;;;;;;;2.10;1.20;;;;;;;7.99;64.69;101662.17;88167;1283;92669;-58
2022/09/05 03:07:53;;;;;;;2.30;1.20;;;;;;;7.93;64.87;101663.42;88208;1283;80773;-58
2022/09/05 03:11:26;;;;;;;2.30;1.30;;;;;;;7.87;64.99;101665.59;88201;1281;82336;-58
2022/09/05 03:14:50;;;;;;;2.30;1.10;;;;;;;7.77;65.23;101666.52;87751;1286;96283;-60
2022/09/05 03:17:55;;;;;;;2.80;1.10;;;;;;;7.68;65.59;101663.42;87881;1286;86354;-61
2022/09/05 03:21:21;;;;;;;2.30;1.30;;;;;;;7.60;65.80;101663.55;88190;1283;93056;-61
2022/09/05 03:24:29;;;;;;;4.70;1.20;;;;;;;7.51;66.02;101659.93;88196;1281;79905;-61
2022/09/05 03:27:55;;;;;;;3.10;1.20;;;;;;;7.42;66.20;101661.48;88225;1282;79798;-62
2022/09/05 03:30:21;;;;;;;;;;;;;;;7.38;66.60;101659.30;87982;1283;95958;-61
2022/09/05 03:33:35;;;;;;;2.80;1.20;;;;;;;7.32;66.71;101661.88;88174;1282;84874;-58
2022/09/05 03:37:06;;;;;;;4.60;1.20;;;;;;;7.32;66.89;101662.54;88164;1282;92911;-58
2022/09/05 03:40:16;;;;;;;3.50;1.20;;;;;;;7.31;67.02;101670.01;88211;1283;80012;-57
2022/09/05 03:43:34;;;;;;;3.10;1.30;;;;;;;7.25;67.35;101674.14;88194;1281;80064;-57
2022/09/05 03:46:18;;;;;;;4.40;1.40;;;;;;;7.22;67.55;101681.21;88182;1283;96702;-56
2022/09/05 03:49:07;;;;;;;6.30;1.60;;;;;;;7.16;67.56;101681.08;88199;1283;85771;-60
2022/09/05 03:51:47;;;;;;;3.80;1.70;;;;;;;7.14;67.70;101683.19;88217;1282;93423;-59
2022/09/05 03:54:52;;;;;;;3.10;1.60;;;;;;;7.13;67.66;101682.22;88196;1281;81024;-59
2022/09/05 03:57:51;;;;;;;4.10;1.80;;;;;;;7.09;67.84;101684.75;88181;1283;80502;-59
2022/09/05 04:00:27;;;;;;;4.60;1.80;;;;;;;7.05;68.09;101692.38;88134;1282;100360;-59
2022/09/05 04:03:14;;;;;;;6.70;2.10;;;;;;;7.01;68.18;101689.55;88138;1281;88756;-57
2022/09/05 04:05:47;;;;;;;5.90;2.10;;;;;;;6.97;68.38;101687.58;88161;1283;95469;-58
2022/09/05 04:08:21;;;;;;;6.00;2.30;;;;;;;7.02;68.31;101683.02;88163;1283;83567;-61
2022/09/05 04:11:00;;;;;;;6.50;2.10;;;;;;;7.05;68.26;101687.58;88196;1281;81892;-62
2022/09/05 04:13:34;;;;;;;5.40;2.20;;;;;;;7.06;68.57;101687.85;88194;1281;96870;-57
2022/09/05 04:16:17;;;;;;;6.70;2.10;;;;;;;7.01;68.65;101689.38;88174;1282;89323;-56
2022/09/05 04:18:49;;;;;;;6.70;2.40;;;;;;;7.01;68.66;101693.45;88171;1280;95654;-58
2022/09/05 04:21:23;;;;;;;5.10;2.20;;;;;;;6.99;68.77;101694.55;88174;1282;76764;-58
2022/09/05 04:24:10;;;;;;;6.20;2.70;;;;;;;6.95;68.83;101701.19;88194;1283;80549;-57
2022/09/05 04:27:17;;;;;;;7.80;2.30;;;;;;;6.94;68.93;101699.85;88173;1283;95139;-58
2022/09/05 04:30:44;;;;;;;6.10;2.00;;;;;;;6.94;69.10;101703.62;88171;1281;87986;-61
2022/09/05 04:37:10;;;;;;;7.70;2.00;;;;;;;7.10;69.52;101708.45;88051;1282;79766;-59
2022/09/05 04:40:27;;;;;;;;;;;;;;;7.44;69.48;101707.67;88175;1282;80402;-59
2022/09/05 04:43:31;;;;;;;8.80;2.00;;;;;;;7.57;69.45;101708.30;88187;1281;99006;-59
2022/09/05 04:46:39;;;;;;;6.00;2.60;;;;;;;7.68;69.52;101710.54;88174;1283;87551;-58
2022/09/05 04:49:25;;;;;;;10.00;3.50;;;;;;;7.82;69.42;101712.69;88138;1282;93302;-58
2022/09/05 04:52:32;;;;;;;8.70;2.30;;;;;;;7.86;69.54;101716.60;88164;1281;81089;-59
2022/09/05 04:55:31;;;;;;;7.10;2.40;;;;;;;8.01;69.42;101718.80;88139;1283;81477;-59
2022/09/05 04:58:52;;;;;;;11.40;2.70;;;;;;;8.14;69.27;101723.34;88120;1283;99852;-58
2022/09/05 05:01:35;;;;;;;5.60;2.10;;;;;;;8.28;69.42;101728.19;88138;1280;87069;-60
2022/09/05 05:04:24;;;;;;;9.50;3.20;;;;;;;8.34;69.65;101732.48;88229;1278;95406;-60
2022/09/05 05:07:25;;;;;;;12.50;2.50;;;;;;;8.49;69.46;101730.83;88197;1280;80029;-60
2022/09/05 05:10:10;;;;;;;16.60;3.20;;;;;;;8.72;69.53;101727.55;88187;1280;80839;-59
2022/09/05 05:13:04;;;;;;;16.30;4.10;;;;;;;8.88;69.46;101728.15;88227;1279;97050;-64
2022/09/05 05:15:46;;;;;;;;;;;;;;;9.17;69.28;101724.11;88261;1279;89423;-59
2022/09/05 05:18:31;;;;;;;5.60;2.20;;;;;;;9.45;68.96;101720.83;88180;1279;93141;-57
2022/09/05 05:21:09;;;;;;;8.20;2.40;;;;;;;9.76;68.51;101722.45;88257;1278;78194;-57
2022/09/05 05:23:56;;;;;;;5.10;1.90;;;;;;;10.18;68.23;101723.54;88191;1280;82616;-59
2022/09/05 05:26:39;;;;;;;6.70;1.90;;;;;;;11.85;68.52;101717.16;88243;1279;101191;-63
2022/09/05 05:29:23;;;;;;;5.30;1.60;;;;;;;14.93;66.71;101710.14;88213;1279;85073;-65
2022/09/05 05:32:03;;;;;;;4.50;1.80;;;;;;;17.74;62.82;101705.41;88192;1280;95293;-58
2022/09/05 05:34:49;;;;;;;6.30;1.60;;;;;;;19.97;59.68;101701.79;88193;1279;78305;-59
2022/09/05 05:37:38;;;;;;;4.60;1.50;;;;;;;21.69;55.88;101704.58;88236;1279;82930;-60
2022/09/05 05:40:20;;;;;;;8.00;1.70;;;;;;;22.47;52.74;101703.94;88253;1278;98611;-60
2022/09/05 05:42:53;;;;;;;4.90;1.70;;;;;;;23.81;49.99;101704.42;88244;1279;84779;-61
2022/09/05 05:45:36;;;;;;;3.50;1.60;;;;;;;24.79;47.64;101711.42;88173;1280;95292;-61
2022/09/05 05:48:24;;;;;;;9.90;2.00;;;;;;;25.57;44.42;101713.08;88221;1279;77022;-59
2022/09/05 05:51:08;;;;;;;5.70;1.60;;;;;;;24.93;42.50;101713.30;88268;1279;80115;-60
2022/09/05 05:53:47;;;;;;;2.70;1.40;;;;;;;23.56;41.85;101714.73;88263;1278;95827;-62
2022/09/05 05:56:41;;;;;;;5.10;1.70;;;;;;;23.86;41.64;101712.80;87918;1279;501525;-62
2022/09/05 05:59:41;;;;;;;5.20;1.70;;;;;;;25.37;39.96;101719.96;88291;1278;91491;-65
2022/09/05 06:02:52;;;;;;;5.20;1.70;;;;;;;26.53;39.29;101713.76;88358;1276;79626;-65
2022/09/05 06:05:45;;;;;;;4.90;1.60;;;;;;;27.80;38.27;101714.17;88353;1276;79989;-65
2022/09/05 06:09:00;;;;;;;4.90;1.80;;;;;;;28.87;37.20;101710.73;88366;1276;97073;-64
2022/09/05 06:12:16;;;;;;;6.70;1.70;;;;;;;29.77;35.44;101712.13;88334;1276;86625;-63
2022/09/05 06:15:26;;;;;;;4.50;2.00;;;;;;;29.33;33.21;101716.72;88319;1276;92958;-62
2022/09/05 06:18:54;;;;;;;8.00;1.90;;;;;;;29.73;33.26;101721.17;88273;1276;78622;-63
2022/09/05 06:22:05;;;;;;;5.80;1.90;;;;;;;30.05;32.35;101718.96;88357;1276;80293;-61
2022/09/05 06:27:48;;;;;;;;;;;;;;;26.15;32.48;101728.02;86421;1302;600580;-63
2022/09/05 06:30:20;;;;;;;4.20;1.40;;;;;;;24.57;33.51;101728.93;88573;1273;77727;-63
2022/09/05 06:33:25;;;;;;;6.60;2.00;;;;;;;24.09;33.78;101729.45;88736;1273;80528;-61
2022/09/05 06:36:06;;;;;;;5.40;1.40;;;;;;;23.02;34.22;101733.99;88728;1274;95293;-60
2022/09/05 06:38:51;;;;;;;3.20;1.40;;;;;;;22.57;34.31;101737.73;89009;1267;84994;-62
2022/09/05 06:41:30;;;;;;;3.10;1.20;;;;;;;21.79;34.62;101746.83;88661;1264;495277;-59
2022/09/05 06:44:45;;;;;;;5.50;1.70;;;;;;;21.10;35.29;101749.30;89094;1257;79139;-59
2022/09/05 06:47:15;;;;;;;;;;;;;;;20.16;36.46;101746.50;88776;1270;79082;-59
2022/09/05 06:50:10;;;;;;;7.50;1.40;;;;;;;19.68;37.18;101750.95;88777;1270;95723;-59
2022/09/05 06:53:24;;;;;;;7.30;1.40;;;;;;;19.51;37.47;101758.02;88769;1270;87828;-63
2022/09/05 06:56:23;;;;;;;4.20;1.20;;;;;;;19.42;38.06;101758.74;88983;1269;92198;-62
2022/09/05 06:59:36;;;;;;;6.10;1.40;;;;;;;19.72;38.13;101759.08;89097;1264;77878;-62
2022/09/05 07:02:12;;;;;;;3.00;1.30;;;;;;;20.57;38.50;101759.75;89134;1264;80555;-65
2022/09/05 07:04:42;;;;;;;4.80;1.10;;;;;;;21.40;37.55;101758.83;89072;1264;95049;-64
2022/09/05 07:07:26;;;;;;;5.50;1.50;;;;;;;21.77;37.05;101756.52;89127;1264;90349;-59
2022/09/05 07:10:06;;;;;;;8.90;1.50;;;;;;;21.93;36.42;101761.71;89068;1264;95038;-60
2022/09/05 07:12:42;;;;;;;5.90;1.40;;;;;;;22.28;36.71;101759.42;89073;1264;79554;-60
2022/09/05 07:15:26;;;;;;;5.70;1.80;;;;;;;22.63;36.53;101760.79;89110;1264;80468;-62
2022/09/05 07:18:01;;;;;;;6.80;1.80;;;;;;;22.93;36.33;101763.83;89144;1263;96640;-66
2022/09/05 07:20:39;;;;;;;5.60;1.90;;;;;;;23.16;35.14;101763.95;89920;1260;86146;-65
2022/09/05 07:23:17;;;;;;;7.30;1.60;;;;;;;22.98;34.73;101765.21;89979;1259;94948;-61
2022/09/05 07:25:49;;;;;;;9.80;3.80;;;;;;;22.81;34.78;101766.39;89947;1259;77721;-61
2022/09/05 07:28:20;;;;;;;7.00;1.80;;;;;;;23.08;34.81;101769.41;89972;1261;80535;-62
2022/09/05 07:30:55;;;;;;;10.50;4.40;;;;;;;23.22;34.27;101769.42;89930;1260;95825;-62
2022/09/05 07:33:27;;;;;;;10.70;4.70;;;;;;;22.89;34.60;101767.58;89976;1260;86248;-62
2022/09/05 07:36:05;;;;;;;11.00;4.80;;;;;;;22.68;34.80;101770.23;89935;1261;93456;-62
2022/09/05 07:38:36;;;;;;;12.50;3.70;;;;;;;22.93;34.86;101769.08;89901;1259;77737;-66
2022/09/05 07:41:10;;;;;;;6.00;2.70;;;;;;;23.17;34.95;101766.79;89929;1260;79920;-64
2022/09/05 07:43:40;;;;;;;8.60;2.80;;;;;;;24.69;34.50;101764.20;89871;1260;98152;-61
2022/09/05 07:46:14;;;;;;;21.30;6.80;;;;;;;26.06;33.75;101766.98;89932;1259;88477;-63
2022/09/05 07:48:45;;;;;;;12.60;4.70;;;;;;;26.91;32.68;101764.46;89610;1259;92871;-62
2022/09/05 07:51:24;;;;;;;12.00;5.60;;;;;;;27.70;31.74;101763.50;89914;1259;77809;-59
2022/09/05 07:54:01;;;;;;;11.40;3.80;;;;;;;28.57;30.99;101757.38;89900;1260;83508;-59
2022/09/05 07:56:50;;;;;;;7.50;1.40;;;;;;;29.22;29.60;101757.59;89878;1260;95785;-56
2022/09/05 07:59:18;;;;;;;4.00;1.30;;;;;;;29.99;28.84;101764.44;89901;1260;86546;-58
2022/09/05 08:01:47;;;;;;;3.00;1.40;;;;;;;29.79;27.04;101762.48;89904;1260;93678;-60
2022/09/05 08:04:26;;;;;;;3.70;1.10;;;;;;;30.22;27.65;101757.46;89865;1260;78175;-62
2022/09/05 08:06:55;;;;;;;2.90;1.00;;;;;;;30.84;26.27;101759.63;89895;1259;80020;-57
2022/09/05 08:09:27;;;;;;;2.10;1.00;;;;;;;30.98;25.77;101757.58;89873;1259;95207;-57
2022/09/05 08:12:01;;;;;;;7.00;1.30;;;;;;;31.03;25.75;101756.99;89869;1259;86846;-56
2022/09/05 08:14:44;;;;;;;8.00;1.70;;;;;;;31.53;26.00;101757.17;89882;1259;92546;-57
2022/09/05 08:17:16;;;;;;;2.90;1.30;;;;;;;32.18;24.92;101759.04;89935;1260;80348;-57
2022/09/05 08:20:00;;;;;;;6.10;2.20;;;;;;;32.10;23.79;101760.46;89897;1258;80650;-57
2022/09/05 08:22:48;;;;;;;5.10;1.40;;;;;;;31.85;24.40;101758.92;89889;1260;95992;-62
2022/09/05 08:25:20;;;;;;;3.70;1.20;;;;;;;32.00;24.47;101755.06;89918;1260;88590;-61
2022/09/05 08:28:02;;;;;;;5.50;1.70;;;;;;;31.87;23.81;101751.80;89855;1260;92700;-57
2022/09/05 08:30:36;;;;;;;3.70;1.30;;;;;;;32.04;24.03;101751.47;89867;1260;79726;-57
2022/09/05 08:33:10;;;;;;;4.30;1.20;;;;;;;32.07;23.56;101756.59;89877;1259;79962;-59
2022/09/05 08:35:44;;;;;;;0.80;0.60;;;;;;;32.23;23.09;101752.98;89852;1258;95779;-59
2022/09/05 08:38:15;;;;;;;4.30;1.40;;;;;;;31.88;23.02;101751.27;89848;1260;89423;-57
2022/09/05 08:40:53;;;;;;;4.80;1.80;;;;;;;31.76;22.78;101747.69;89828;1260;92724;-57
2022/09/05 08:43:31;;;;;;;4.60;1.20;;;;;;;32.02;22.71;101744.97;89803;1260;80815;-57
2022/09/05 08:46:04;;;;;;;3.30;1.20;;;;;;;32.05;22.37;101750.19;89884;1259;80639;-57
2022/09/05 08:48:51;;;;;;;2.20;0.80;;;;;;;31.80;22.90;101746.58;89828;1260;97872;-57
2022/09/05 08:51:35;;;;;;;2.70;1.10;;;;;;;31.87;22.53;101743.68;89916;1260;87081;-58
2022/09/05 08:54:25;;;;;;;2.10;0.60;;;;;;;31.68;22.19;101745.25;89913;1260;93877;-58
2022/09/05 08:57:07;;;;;;;1.40;0.60;;;;;;;31.54;22.04;101742.25;89911;1260;77533;-60
2022/09/05 08:59:47;;;;;;;4.70;0.90;;;;;;;31.36;21.69;101739.96;89864;1259;80803;-62
2022/09/05 09:02:55;;;;;;;7.10;1.80;;;;;;;30.71;22.26;101739.77;89859;1260;98839;-56
2022/09/05 09:05:46;;;;;;;3.70;1.00;;;;;;;30.82;21.67;101735.42;89875;1260;86671;-57
2022/09/05 09:08:19;;;;;;;2.60;0.90;;;;;;;31.33;21.75;101738.77;89846;1260;93919;-58
2022/09/05 09:10:56;;;;;;;2.70;0.90;;;;;;;31.67;21.65;101732.94;89816;1260;77543;-58
2022/09/05 09:13:51;;;;;;;4.30;1.20;;;;;;;31.56;21.87;101730.64;89856;1260;83467;-58
2022/09/05 09:16:30;;;;;;;3.80;1.40;;;;;;;31.06;21.60;101725.97;89842;1258;95237;-59
2022/09/05 09:19:13;;;;;;;4.70;1.80;;;;;;;30.97;21.92;101727.55;89880;1260;87156;-60
2022/09/05 09:21:47;;;;;;;39.90;7.00;;;;;;;30.94;21.81;101720.55;89839;1260;93790;-61
2022/09/05 09:24:37;;;;;;;5.50;1.30;;;;;;;30.47;22.24;101721.65;89854;1260;78311;-61
2022/09/05 09:27:14;;;;;;;3.50;1.00;;;;;;;30.32;21.89;101719.71;89855;1259;80388;-56
2022/09/05 09:29:44;;;;;;;5.50;0.70;;;;;;;30.09;22.07;101721.40;89832;1260;97071;-57
2022/09/05 09:32:14;;;;;;;3.80;1.50;;;;;;;29.47;22.43;101716.73;89904;1260;86523;-59
2022/09/05 09:34:56;;;;;;;8.30;1.90;;;;;;;29.09;23.31;101708.88;89875;1260;95824;-59
2022/09/05 09:38:25;;;;;;;5.80;1.30;;;;;;;28.45;23.43;101703.98;89901;1259;81064;-59
2022/09/05 09:41:48;;;;;;;6.20;1.00;;;;;;;27.16;23.71;101713.17;89444;1261;82234;-59
2022/09/05 09:45:11;;;;;;;2.10;1.00;;;;;;;26.19;23.96;101708.30;89492;1260;96205;-59
2022/09/05 09:48:41;;;;;;;1.20;0.50;;;;;;;25.99;24.50;101710.34;89890;1260;86705;-58
2022/09/05 09:51:31;;;;;;;0.70;0.50;;;;;;;25.87;25.15;101701.17;89079;1264;92597;-57
2022/09/05 09:54:39;;;;;;;3.50;1.00;;;;;;;25.79;25.71;101701.61;89875;1259;78175;-56
2022/09/05 09:57:59;;;;;;;1.80;0.70;;;;;;;25.38;25.69;101700.89;89897;1260;80157;-58
2022/09/05 10:00:44;;;;;;;3.90;1.00;;;;;;;25.16;26.29;101698.75;89858;1259;95129;-57
2022/09/05 10:03:49;;;;;;;7.20;1.40;;;;;;;24.80;26.50;101696.39;89889;1260;86669;-57
2022/09/05 10:07:01;;;;;;;6.20;1.00;;;;;;;24.71;26.98;101697.79;89849;1259;97386;-60
2022/09/05 10:09:46;;;;;;;1.40;0.60;;;;;;;24.62;26.97;101699.08;89866;1260;80351;-59
2022/09/05 10:13:03;;;;;;;3.80;0.60;;;;;;;24.00;26.99;101687.95;89934;1259;81081;-58
2022/09/05 10:15:39;;;;;;;2.00;0.40;;;;;;;23.84;27.47;101687.54;89843;1259;97823;-59
2022/09/05 10:18:40;;;;;;;4.80;0.80;;;;;;;23.97;27.52;101681.22;89836;1258;86322;-57
2022/09/05 10:21:49;;;;;;;3.50;0.80;;;;;;;24.06;27.40;101684.16;89838;1260;95815;-57
2022/09/05 10:24:58;;;;;;;2.00;0.90;;;;;;;23.91;27.04;101680.07;89050;1264;78210;-58
2022/09/05 10:28:01;;;;;;;5.80;1.50;;;;;;;23.88;27.53;101681.76;89851;1259;80672;-60
2022/09/05 10:30:44;;;;;;;2.00;0.70;;;;;;;23.78;27.41;101677.31;89842;1259;95515;-60
2022/09/05 10:33:39;;;;;;;1.90;0.70;;;;;;;23.78;27.87;101677.05;89872;1260;88262;-56
2022/09/05 10:36:23;;;;;;;2.70;1.10;;;;;;;23.63;28.15;101674.52;89830;1260;96428;-60
2022/09/05 10:39:12;;;;;;;2.30;1.20;;;;;;;23.52;28.24;101677.26;89903;1259;77348;-60
2022/09/05 10:41:49;;;;;;;1.80;0.60;;;;;;;23.23;28.60;101678.91;89899;1260;80547;-58
2022/09/05 10:44:18;;;;;;;5.80;1.70;;;;;;;23.13;28.28;101675.09;89897;1258;96234;-57
2022/09/05 10:47:06;;;;;;;1.90;0.40;;;;;;;22.89;28.72;101672.95;89881;1258;85166;-55
2022/09/05 10:49:44;;;;;;;1.20;0.60;;;;;;;22.77;28.75;101676.46;89847;1259;92252;-57
2022/09/05 10:52:21;;;;;;;1.70;0.60;;;;;;;22.75;28.76;101673.27;89873;1260;80732;-58
2022/09/05 10:55:21;;;;;;;1.30;0.50;;;;;;;22.59;28.98;101668.38;89879;1260;80975;-58
2022/09/05 10:58:06;;;;;;;7.50;0.80;;;;;;;22.79;29.09;101666.92;89867;1259;95661;-57
2022/09/05 11:01:04;;;;;;;6.70;0.80;;;;;;;22.73;29.10;101668.69;89863;1259;86614;-55
2022/09/05 11:03:52;;;;;;;8.50;1.60;;;;;;;22.65;29.14;101662.64;89851;1259;94692;-60
2022/09/05 11:06:32;;;;;;;3.90;0.70;;;;;;;22.74;29.39;101662.00;89868;1259;77501;-60
2022/09/05 11:09:11;;;;;;;3.30;0.50;;;;;;;22.74;29.05;101662.28;89891;1259;82712;-60
2022/09/05 11:11:47;;;;;;;1.10;0.50;;;;;;;22.71;28.92;101661.20;89925;1259;95883;-61
2022/09/05 11:14:35;;;;;;;1.10;0.60;;;;;;;22.71;29.51;101656.30;89965;1260;88134;-61
2022/09/05 11:17:17;;;;;;;1.70;0.70;;;;;;;22.72;29.65;101653.86;89966;1259;92349;-58
2022/09/05 11:19:52;;;;;;;1.70;1.00;;;;;;;22.94;29.84;101651.27;89918;1260;80189;-57
2022/09/05 11:22:22;;;;;;;2.50;0.90;;;;;;;23.07;29.71;101649.92;89918;1259;82568;-58
2022/09/05 11:24:56;;;;;;;1.10;0.50;;;;;;;23.09;29.63;101654.39;89929;1259;96494;-58
2022/09/05 11:27:33;;;;;;;1.60;0.70;;;;;;;23.04;29.54;101649.59;89951;1259;87103;-60
2022/09/05 11:30:05;;;;;;;1.30;0.50;;;;;;;23.11;29.80;101640.81;89863;1259;94319;-61
2022/09/05 11:33:24;;;;;;;3.00;0.80;;;;;;;22.99;30.00;101646.33;89919;1260;78048;-60
2022/09/05 11:35:57;;;;;;;1.70;0.90;;;;;;;22.98;30.18;101648.44;89664;1259;80388;-61
2022/09/05 11:39:12;;;;;;;29.80;4.60;;;;;;;22.78;30.27;101645.12;89932;1260;96305;-59
2022/09/05 11:42:24;;;;;;;4.70;1.20;;;;;;;22.57;29.98;101644.36;89609;1259;86154;-57
2022/09/05 11:45:21;;;;;;;0.80;0.60;;;;;;;22.42;29.75;101644.97;89937;1259;95878;-56
2022/09/05 11:48:33;;;;;;;2.00;0.50;;;;;;;22.15;29.75;101642.73;89772;1259;80373;-57
2022/09/05 11:51:39;;;;;;;4.60;0.90;;;;;;;22.10;29.86;101637.58;89912;1260;79904;-57
2022/09/05 11:54:56;;;;;;;0.90;0.50;;;;;;;22.17;30.30;101634.48;89842;1259;97060;-57
2022/09/05 11:57:44;;;;;;;4.20;0.90;;;;;;;22.00;30.19;101631.69;89908;1259;86693;-57
2022/09/05 12:00:26;;;;;;;2.30;0.90;;;;;;;21.82;30.58;101627.27;89893;1259;95031;-56
2022/09/05 12:03:36;;;;;;;2.50;1.20;;;;;;;21.97;30.50;101629.20;89907;1259;76700;-58
2022/09/05 12:06:38;;;;;;;2.60;0.80;;;;;;;21.91;30.47;101621.82;89900;1259;80253;-59
2022/09/05 12:09:17;;;;;;;1.50;0.50;;;;;;;21.86;30.60;101623.53;89667;1259;96760;-58
2022/09/05 12:12:06;;;;;;;1.70;0.60;;;;;;;21.80;30.62;101621.67;89923;1260;87130;-61
2022/09/05 12:14:42;;;;;;;3.90;0.60;;;;;;;21.85;30.57;101619.11;89903;1258;93126;-61
2022/09/05 12:17:23;;;;;;;4.00;0.70;;;;;;;21.84;30.36;101616.83;89888;1260;78262;-60
2022/09/05 12:20:04;;;;;;;2.00;0.60;;;;;;;21.50;30.49;101618.01;89878;1259;80923;-62
2022/09/05 12:22:39;;;;;;;5.50;0.90;;;;;;;21.26;30.74;101623.30;89889;1259;96062;-63
2022/09/05 12:25:25;;;;;;;12.70;1.20;;;;;;;20.93;30.90;101621.11;89878;1259;85789;-63
2022/09/05 12:27:58;;;;;;;3.10;0.70;;;;;;;20.68;31.16;101626.77;89870;1259;95897;-63
2022/09/05 12:30:32;;;;;;;4.00;0.70;;;;;;;20.70;31.14;101621.09;89837;1260;78392;-62
2022/09/05 12:33:21;;;;;;;1.40;0.40;;;;;;;20.88;31.10;101614.79;89849;1258;80559;-61
2022/09/05 12:35:54;;;;;;;1.20;0.40;;;;;;;20.98;31.29;101610.83;89853;1258;95342;-61
2022/09/05 12:38:42;;;;;;;0.70;0.50;;;;;;;21.09;31.43;101606.25;89936;1259;86104;-61
2022/09/05 12:41:16;;;;;;;1.00;0.60;;;;;;;21.20;31.50;101605.79;89860;1260;92842;-61
2022/09/05 12:44:07;;;;;;;1.10;0.80;;;;;;;21.15;31.26;101603.95;89913;1260;78005;-62
2022/09/05 12:46:50;;;;;;;4.00;0.80;;;;;;;21.12;31.13;101604.52;89923;1260;78899;-63
2022/09/05 12:49:29;;;;;;;4.80;0.80;;;;;;;21.10;31.30;101601.17;89881;1259;97882;-62
2022/09/05 12:52:04;;;;;;;6.50;0.80;;;;;;;21.08;31.34;101601.31;89876;1259;86022;-59
2022/09/05 12:54:42;;;;;;;1.80;0.60;;;;;;;21.12;31.32;101600.40;89867;1259;91357;-58
2022/09/05 12:57:26;;;;;;;1.20;0.40;;;;;;;21.03;31.22;101595.80;89845;1260;80890;-58
2022/09/05 12:59:58;;;;;;;;;;;;;;;21.02;31.36;101594.80;89883;1259;82990;-58
2022/09/05 13:02:30;;;;;;;3.30;0.50;;;;;;;20.96;31.31;101593.73;89856;1259;96584;-57
2022/09/05 13:05:02;;;;;;;1.60;0.60;;;;;;;20.94;31.19;101587.34;89858;1260;90734;-59